Time;durP1;ratioP1;P1;durP2;ratioP2;P2;SDS_P1;SDS_P2;PMS_P1;PMS_P2;Temp;Humidity;BMP_temperature;BMP_pressure;BME280_temperature;BME280_humidity;BME280_pressure;Samples;Min_cycle;Max_cycle;Signal;HPM_P1;HPM_P2
2023/08/23 00:00:04;;;;;;;;;3.00;3.00;;;;;26.27;53.38;101594.63;5092162;27;45522;-77
2023/08/23 00:02:29;;;;;;;;;2.75;2.75;;;;;26.23;53.47;101591.31;5096467;27;45335;-77
2023/08/23 00:04:54;;;;;;;;;2.00;1.50;;;;;26.27;53.62;101597.38;5084356;27;45557;-77
2023/08/23 00:07:20;;;;;;;;;2.00;2.00;;;;;26.25;53.50;101598.34;5076673;27;47068;-77
2023/08/23 00:09:45;;;;;;;;;2.00;2.00;;;;;26.22;54.11;101584.06;5090677;27;45459;-77
2023/08/23 00:12:11;;;;;;;;;2.00;2.00;;;;;26.19;54.17;101581.59;5082333;27;45492;-77
2023/08/23 00:14:36;;;;;;;;;1.50;1.50;;;;;26.11;53.75;101576.81;5094189;27;45447;-77
2023/08/23 00:17:02;;;;;;;;;1.00;1.00;;;;;26.15;53.89;101583.72;5080214;27;46187;-77
2023/08/23 00:19:27;;;;;;;;;2.00;2.00;;;;;26.15;53.41;101582.88;5086095;27;45514;-77
2023/08/23 00:21:52;;;;;;;;;2.50;2.25;;;;;26.15;54.12;101571.94;5101655;27;45437;-77
2023/08/23 00:24:19;;;;;;;;;3.50;3.00;;;;;26.14;53.38;101567.44;5091503;27;45479;-77
2023/08/23 00:26:44;;;;;;;;;2.00;2.00;;;;;26.09;53.26;101570.56;5082887;27;45290;-77
2023/08/23 00:29:10;;;;;;;;;2.25;2.00;;;;;25.94;53.57;101567.22;5089520;27;46015;-77
2023/08/23 00:31:35;;;;;;;;;3.00;2.00;;;;;25.89;53.58;101573.13;5096723;27;45385;-77
2023/08/23 00:34:00;;;;;;;;;2.75;2.00;;;;;25.82;53.47;101560.06;5097401;27;45546;-77
2023/08/23 00:36:26;;;;;;;;;2.25;2.00;;;;;25.77;53.23;101555.00;5081151;27;47132;-77
2023/08/23 00:38:51;;;;;;;;;1.00;1.00;;;;;25.67;53.75;101543.09;5079866;27;45325;-77
2023/08/23 00:41:16;;;;;;;;;2.50;1.25;;;;;25.68;53.46;101545.69;5097392;27;45412;-77
2023/08/23 00:43:42;;;;;;;;;2.75;2.75;;;;;25.68;53.86;101544.84;5084580;27;48834;-77
2023/08/23 00:46:07;;;;;;;;;1.00;1.00;;;;;25.63;53.77;101528.81;5096601;27;46069;-77
2023/08/23 00:48:33;;;;;;;;;1.50;1.50;;;;;25.68;53.85;101532.03;5087423;27;45339;-77
2023/08/23 00:50:59;;;;;;;;;1.00;1.00;;;;;25.60;53.52;101520.88;5096879;27;45464;-77
2023/08/23 00:53:25;;;;;;;;;2.00;1.00;;;;;25.66;53.29;101533.13;5092835;27;45540;-77
2023/08/23 00:55:51;;;;;;;;;2.00;2.00;;;;;25.63;53.47;101527.97;5099452;27;48197;-77
2023/08/23 00:58:17;;;;;;;;;2.00;2.00;;;;;25.50;53.39;101518.03;5089949;27;45435;-77
2023/08/23 01:00:45;;;;;;;;;2.00;2.00;;;;;25.52;53.29;101515.16;5082902;27;45394;-77
2023/08/23 01:03:10;;;;;;;;;1.00;1.00;;;;;25.52;53.78;101516.03;5089563;27;45672;-77
2023/08/23 01:06:02;;;;;;;;;1.50;1.50;;;;;25.40;53.06;101500.66;5096675;27;46680;-77
2023/08/23 01:08:47;;;;;;;;;1.75;1.75;;;;;25.56;53.51;101530.34;5080731;27;45309;-77
2023/08/23 01:11:34;;;;;;;;;1.50;1.00;;;;;25.54;53.13;101528.72;5092005;27;45467;-77
2023/08/23 01:14:05;;;;;;;;;2.50;1.00;;;;;25.49;53.38;101526.34;5087201;27;45478;-77
2023/08/23 01:16:33;;;;;;;;;3.00;2.50;;;;;25.38;53.55;101515.47;5100170;27;45485;-77
2023/08/23 01:19:03;;;;;;;;;1.25;1.25;;;;;25.32;53.20;101508.63;5084146;27;45702;-76
2023/08/23 01:21:36;;;;;;;;;3.25;2.00;;;;;25.29;53.17;101501.56;5080953;27;45417;-77
2023/08/23 01:24:08;;;;;;;;;3.00;3.00;;;;;25.38;53.24;101520.94;5099682;27;45563;-77
2023/08/23 01:26:39;;;;;;;;;2.00;2.00;;;;;25.36;53.56;101514.72;5088576;27;45492;-77
2023/08/23 01:29:04;;;;;;;;;1.00;1.00;;;;;25.38;53.65;101518.22;5089020;27;45538;-77
2023/08/23 01:31:35;;;;;;;;;2.00;2.00;;;;;25.36;53.98;101520.19;5080654;27;45599;-77
2023/08/23 01:34:09;;;;;;;;;1.00;1.00;;;;;25.32;53.63;101511.38;5080917;27;45430;-77
2023/08/23 01:36:39;;;;;;;;;2.25;2.25;;;;;25.36;53.25;101526.53;5081132;27;46370;-77
2023/08/23 01:39:05;;;;;;;;;2.00;2.00;;;;;25.15;53.25;101494.47;5087097;27;45606;-77
2023/08/23 01:41:30;;;;;;;;;1.00;1.00;;;;;25.35;53.77;101521.19;5080809;27;45368;-77
2023/08/23 01:43:57;;;;;;;;;3.00;3.00;;;;;25.32;53.72;101525.03;5083756;27;45730;-77
2023/08/23 01:46:22;;;;;;;;;1.75;1.75;;;;;25.16;53.35;101506.28;5093627;27;45414;-77
2023/08/23 01:48:48;;;;;;;;;2.00;2.00;;;;;25.21;53.65;101509.50;5080348;27;45416;-77
2023/08/23 01:51:13;;;;;;;;;2.25;2.25;;;;;25.27;53.74;101524.53;5096432;27;45419;-77
2023/08/23 01:53:38;;;;;;;;;3.00;1.75;;;;;25.18;53.83;101508.91;5078814;27;45704;-77
2023/08/23 01:56:04;;;;;;;;;2.00;1.50;;;;;25.21;53.91;101527.75;5111758;27;46891;-77
2023/08/23 01:58:29;;;;;;;;;2.00;2.00;;;;;25.14;54.08;101510.97;5098131;27;57088;-77
2023/08/23 02:00:54;;;;;;;;;4.25;2.00;;;;;25.16;54.32;101514.47;5084889;27;45355;-77
2023/08/23 02:03:20;;;;;;;;;1.25;1.25;;;;;25.11;53.79;101511.25;5086259;27;45497;-77
2023/08/23 02:05:45;;;;;;;;;1.75;1.75;;;;;25.12;53.62;101524.75;5080344;27;45494;-77
2023/08/23 02:08:11;;;;;;;;;1.50;1.50;;;;;25.01;53.85;101494.75;5099136;27;45360;-77
2023/08/23 02:10:36;;;;;;;;;1.00;1.00;;;;;25.06;53.94;101508.91;5084668;27;45490;-77
2023/08/23 02:13:05;;;;;;;;;2.00;2.00;;;;;24.96;54.67;101499.72;5100245;27;45531;-77
2023/08/23 02:15:31;;;;;;;;;1.50;1.50;;;;;24.96;54.60;101491.53;5079865;27;45486;-77
2023/08/23 02:17:56;;;;;;;;;4.00;2.25;;;;;25.06;54.46;101505.28;5082575;27;45480;-77
2023/08/23 02:20:21;;;;;;;;;3.50;2.75;;;;;25.06;54.41;101505.28;5088106;27;45630;-77
2023/08/23 02:22:47;;;;;;;;;2.00;2.00;;;;;25.04;54.68;101505.44;5085718;27;46009;-77
2023/08/23 02:25:12;;;;;;;;;2.00;2.00;;;;;24.94;54.92;101477.09;5078078;27;59515;-77
2023/08/23 02:27:37;;;;;;;;;4.00;2.75;;;;;24.99;54.25;101490.41;5078537;28;45412;-77
2023/08/23 02:30:03;;;;;;;;;4.00;2.00;;;;;24.99;54.86;101493.13;5080042;27;45381;-77
2023/08/23 02:32:28;;;;;;;;;3.00;3.00;;;;;25.01;54.65;101488.41;5079751;27;45363;-76
2023/08/23 02:34:53;;;;;;;;;2.50;2.50;;;;;24.93;54.84;101484.44;5079785;27;46043;-77
2023/08/23 02:37:19;;;;;;;;;2.00;2.00;;;;;24.99;55.17;101493.97;5095115;27;45425;-77
2023/08/23 02:39:44;;;;;;;;;2.00;2.00;;;;;24.98;54.96;101491.41;5078853;27;45366;-77
2023/08/23 02:42:09;;;;;;;;;2.75;2.75;;;;;24.96;54.60;101497.84;5079426;27;50726;-77
2023/08/23 02:44:35;;;;;;;;;4.00;3.50;;;;;24.95;54.79;101495.25;5085846;27;46462;-77
2023/08/23 02:47:00;;;;;;;;;3.00;3.00;;;;;24.87;55.05;101493.13;5079470;27;45429;-77
2023/08/23 02:49:25;;;;;;;;;2.00;2.00;;;;;24.91;55.05;101499.22;5096946;27;45531;-77
2023/08/23 02:51:51;;;;;;;;;2.25;2.00;;;;;24.89;55.09;101493.91;5086886;27;45492;-77
2023/08/23 02:54:16;;;;;;;;;5.00;3.00;;;;;24.84;54.74;101479.75;5079304;27;45296;-78
2023/08/23 02:56:41;;;;;;;;;2.00;2.00;;;;;24.88;55.24;101488.56;5091843;27;45392;-77
2023/08/23 02:59:07;;;;;;;;;4.00;2.25;;;;;24.82;55.13;101478.13;5093991;27;45521;-77
2023/08/23 03:01:32;;;;;;;;;3.00;3.00;;;;;24.81;54.82;101484.56;5089159;27;45439;-77
2023/08/23 03:03:57;;;;;;;;;2.75;2.50;;;;;24.84;55.70;101498.88;5078997;27;47206;-77
2023/08/23 03:06:22;;;;;;;;;3.75;3.00;;;;;24.80;55.62;101497.34;5087153;27;45792;-77
2023/08/23 03:08:48;;;;;;;;;3.25;3.00;;;;;24.79;55.37;101490.16;5092439;27;45499;-77
2023/08/23 03:11:13;;;;;;;;;4.00;4.00;;;;;24.82;55.45;101500.81;5090129;27;45392;-77
2023/08/23 03:13:38;;;;;;;;;2.75;2.25;;;;;24.77;55.69;101492.13;5084483;27;47504;-77
2023/08/23 03:16:04;;;;;;;;;1.25;1.25;;;;;24.74;55.22;101497.84;5099125;27;53531;-77
2023/08/23 03:18:29;;;;;;;;;1.75;1.75;;;;;24.72;55.16;101497.09;5086244;27;45429;-77
2023/08/23 03:20:55;;;;;;;;;7.25;6.00;;;;;24.61;55.53;101487.06;5107040;27;45707;-77
2023/08/23 03:23:20;;;;;;;;;6.00;6.00;;;;;24.62;55.64;101498.84;5099067;27;45365;-77
2023/08/23 03:25:47;;;;;;;;;6.75;4.75;;;;;24.49;55.66;101463.44;5099369;27;45728;-77
2023/08/23 03:28:13;;;;;;;;;4.50;4.50;;;;;24.65;55.48;101499.44;5098047;27;45514;-77
2023/08/23 03:30:40;;;;;;;;;5.00;5.00;;;;;24.59;56.03;101483.56;5098080;27;45482;-77
2023/08/23 03:33:05;;;;;;;;;5.75;5.25;;;;;24.63;55.50;101487.81;5079769;27;45683;-78
2023/08/23 03:35:31;;;;;;;;;5.50;4.75;;;;;24.60;55.82;101494.34;5077854;27;45730;-77
2023/08/23 03:37:56;;;;;;;;;4.25;3.25;;;;;24.56;55.92;101481.97;5086004;27;45468;-77
2023/08/23 03:40:22;;;;;;;;;4.00;3.75;;;;;24.55;56.11;101476.63;5086284;27;45428;-77
2023/08/23 03:42:47;;;;;;;;;2.50;2.50;;;;;24.53;56.00;101471.25;5078551;27;46282;-77
2023/08/23 03:45:12;;;;;;;;;5.00;3.25;;;;;24.56;56.60;101481.09;5094258;27;45714;-77
2023/08/23 03:47:38;;;;;;;;;2.75;2.75;;;;;24.51;55.85;101469.66;5080906;27;45483;-77
2023/08/23 03:50:03;;;;;;;;;3.00;3.00;;;;;24.52;56.18;101479.56;5078819;27;45475;-77
2023/08/23 03:52:29;;;;;;;;;2.75;2.75;;;;;24.40;56.02;101465.03;5096765;27;48693;-77
2023/08/23 03:54:54;;;;;;;;;1.00;0.00;;;;;24.41;56.68;101474.97;5098086;27;45429;-77
2023/08/23 03:57:19;;;;;;;;;3.25;3.25;;;;;24.40;56.75;101485.00;5110759;27;50064;-77
2023/08/23 03:59:45;;;;;;;;;2.25;2.25;;;;;24.41;56.50;101481.28;5082206;28;45480;-77
2023/08/23 04:02:10;;;;;;;;;3.00;3.00;;;;;24.32;56.40;101468.38;5092398;27;45429;-78
2023/08/23 04:04:35;;;;;;;;;3.00;3.00;;;;;24.41;56.72;101494.94;5082233;27;45376;-78
2023/08/23 04:07:01;;;;;;;;;3.25;1.75;;;;;24.35;56.77;101483.63;5096227;27;45415;-78
2023/08/23 04:09:26;;;;;;;;;2.00;2.00;;;;;24.36;56.51;101478.06;5093313;27;54854;-77
2023/08/23 04:11:51;;;;;;;;;0.00;0.00;;;;;24.28;56.57;101479.66;5096431;27;58791;-78
2023/08/23 04:14:16;;;;;;;;;3.00;2.00;;;;;24.35;57.34;101489.09;5090425;27;45649;-77
2023/08/23 04:16:42;;;;;;;;;2.00;2.00;;;;;24.33;56.66;101500.13;5100016;27;45519;-77
2023/08/23 04:19:07;;;;;;;;;3.50;2.00;;;;;24.30;56.85;101496.78;5085603;27;45587;-77
2023/08/23 04:21:33;;;;;;;;;2.25;2.25;;;;;24.28;56.86;101501.50;5095048;27;45365;-78
2023/08/23 04:23:59;;;;;;;;;1.00;1.00;;;;;24.22;57.17;101492.78;5081957;27;45298;-78
2023/08/23 04:26:25;;;;;;;;;1.50;0.75;;;;;24.26;56.90;101493.41;5080501;27;45357;-78
2023/08/23 04:28:50;;;;;;;;;3.00;1.75;;;;;24.19;56.85;101486.69;5089577;27;45993;-77
2023/08/23 04:31:15;;;;;;;;;2.00;2.00;;;;;24.20;56.70;101488.44;5088236;27;45446;-78
2023/08/23 04:33:42;;;;;;;;;1.75;1.25;;;;;24.21;57.17;101490.19;5093197;27;45461;-78
2023/08/23 04:36:07;;;;;;;;;1.00;1.00;;;;;24.18;57.03;101493.16;5090445;27;45422;-77
2023/08/23 04:38:33;;;;;;;;;1.50;1.50;;;;;24.16;57.49;101501.44;5086930;27;45619;-77
2023/08/23 04:41:00;;;;;;;;;1.75;1.75;;;;;24.05;57.38;101479.59;5095439;27;45374;-77
2023/08/23 04:43:26;;;;;;;;;3.25;3.25;;;;;24.04;56.93;101481.47;5090676;27;45397;-77
2023/08/23 04:45:53;;;;;;;;;4.75;2.00;;;;;24.07;57.38;101485.78;5085567;27;45399;-78
2023/08/23 04:48:18;;;;;;;;;1.50;1.25;;;;;24.00;57.07;101481.81;5080287;27;45506;-77
2023/08/23 04:50:52;;;;;;;;;2.25;1.25;;;;;23.99;57.26;101480.94;5084215;27;48695;-77
2023/08/23 04:53:18;;;;;;;;;4.00;2.75;;;;;24.04;57.70;101491.50;5090683;27;46176;-78
2023/08/23 04:55:44;;;;;;;;;2.75;2.50;;;;;23.92;57.54;101482.41;5093856;27;45349;-77
2023/08/23 04:58:09;;;;;;;;;2.00;2.00;;;;;23.81;58.14;101472.28;5101561;27;45406;-78
2023/08/23 05:00:35;;;;;;;;;3.00;3.00;;;;;23.96;57.66;101492.09;5085075;27;45809;-78
2023/08/23 05:03:01;;;;;;;;;2.50;1.25;;;;;23.90;57.83;101484.38;5087753;27;45332;-77
2023/08/23 05:05:26;;;;;;;;;3.00;2.00;;;;;23.86;57.60;101477.44;5100969;27;45298;-78
2023/08/23 05:07:52;;;;;;;;;3.75;3.00;;;;;23.84;58.55;101488.47;5099965;27;45618;-77
2023/08/23 05:10:18;;;;;;;;;5.00;4.00;;;;;23.80;58.47;101475.13;5087272;27;45620;-78
2023/08/23 05:12:43;;;;;;;;;3.75;3.00;;;;;23.84;58.26;101491.19;5091263;27;45361;-78
2023/08/23 05:15:08;;;;;;;;;2.25;2.25;;;;;23.88;58.10;101497.25;5099049;27;45403;-78
2023/08/23 05:17:34;;;;;;;;;2.00;2.00;;;;;23.89;58.36;101496.28;5100400;27;45545;-77
2023/08/23 05:19:59;;;;;;;;;2.75;2.75;;;;;23.81;58.01;101496.81;5084142;27;46479;-77
2023/08/23 05:22:24;;;;;;;;;1.75;1.75;;;;;23.77;58.28;101491.72;5080681;28;48557;-77
2023/08/23 05:24:50;;;;;;;;;3.00;3.00;;;;;23.79;58.15;101492.47;5079569;27;45472;-77
2023/08/23 05:27:15;;;;;;;;;4.00;2.00;;;;;23.75;58.49;101483.66;5090543;27;51659;-77
2023/08/23 05:29:40;;;;;;;;;3.00;2.00;;;;;23.76;58.31;101499.03;5096678;27;48111;-77
2023/08/23 05:32:05;;;;;;;;;3.00;3.00;;;;;23.75;58.87;101489.13;5096558;27;45451;-77
2023/08/23 05:34:31;;;;;;;;;1.00;1.00;;;;;23.68;59.18;101476.94;5080883;27;45427;-77
2023/08/23 05:36:56;;;;;;;;;3.00;3.00;;;;;23.69;58.56;101486.88;5099297;27;45636;-77
2023/08/23 05:39:21;;;;;;;;;3.50;3.00;;;;;23.54;58.97;101472.56;5083043;27;47974;-77
2023/08/23 05:41:47;;;;;;;;;3.00;2.50;;;;;23.59;59.08;101477.63;5094521;27;56090;-77
2023/08/23 05:44:12;;;;;;;;;2.00;2.00;;;;;23.67;59.06;101494.28;5096839;27;45519;-77
2023/08/23 05:46:37;;;;;;;;;2.75;2.75;;;;;23.71;59.28;101511.28;5090831;27;45368;-77
2023/08/23 05:49:03;;;;;;;;;2.50;0.00;;;;;23.63;59.94;101500.97;5095906;27;54967;-77
2023/08/23 05:51:28;;;;;;;;;2.00;2.00;;;;;23.57;59.71;101485.97;5080404;27;45369;-77
2023/08/23 05:53:53;;;;;;;;;1.75;1.75;;;;;23.73;59.02;101498.41;5080332;27;45434;-77
2023/08/23 05:56:19;;;;;;;;;2.00;2.00;;;;;23.63;59.54;101485.47;5088315;27;45409;-77
2023/08/23 05:58:44;;;;;;;;;3.00;3.00;;;;;23.68;59.67;101496.03;5086618;27;45486;-78
2023/08/23 06:01:09;;;;;;;;;2.75;2.00;;;;;23.59;59.62;101464.00;5097218;27;52972;-77
2023/08/23 06:03:35;;;;;;;;;3.25;1.25;;;;;23.65;59.58;101480.75;5084126;27;45406;-77
2023/08/23 06:06:00;;;;;;;;;2.25;2.25;;;;;23.60;59.84;101482.97;5086268;27;45380;-77
2023/08/23 06:08:25;;;;;;;;;3.50;3.25;;;;;23.48;59.87;101473.00;5111041;27;47660;-71
2023/08/23 06:10:51;;;;;;;;;2.00;2.00;;;;;23.62;59.67;101493.75;5083906;27;45535;-73
2023/08/23 06:13:16;;;;;;;;;2.00;2.00;;;;;23.60;59.86;101502.03;5088314;27;45309;-73
2023/08/23 06:15:42;;;;;;;;;3.00;2.00;;;;;23.56;59.76;101492.38;5097061;27;45293;-73
2023/08/23 06:18:07;;;;;;;;;2.00;2.00;;;;;23.45;60.03;101475.97;5087657;27;45503;-73
2023/08/23 06:20:32;;;;;;;;;3.00;3.00;;;;;23.55;59.82;101490.63;5099723;27;45476;-73
2023/08/23 06:22:58;;;;;;;;;3.00;3.00;;;;;23.46;60.05;101478.56;5094069;27;45511;-73
2023/08/23 06:25:24;;;;;;;;;2.25;1.25;;;;;23.54;60.54;101490.75;5092154;27;45489;-72
2023/08/23 06:27:49;;;;;;;;;4.00;4.00;;;;;23.35;60.01;101464.88;5079524;27;46819;-73
2023/08/23 06:30:20;;;;;;;;;4.00;3.00;;;;;23.40;60.29;101481.75;5069323;28;45408;-73
2023/08/23 06:33:00;;;;;;;;;3.50;2.25;;;;;23.32;60.28;101481.44;5091833;27;45563;-73
2023/08/23 06:35:37;;;;;;;;;3.00;2.25;;;;;23.10;60.44;101453.13;5090062;27;45467;-73
2023/08/23 06:38:15;;;;;;;;;;;;;;;;;;;;;
2023/08/23 06:40:57;;;;;;;;;;;;;;;;;;;;;
2023/08/23 06:43:26;;;;;;;;;3.00;3.00;;;;;23.18;60.44;101466.16;5095050;27;67628;-72
2023/08/23 06:46:01;;;;;;;;;;;;;;;;;;;;;
2023/08/23 06:48:39;;;;;;;;;;;;;;;;;;;;;
2023/08/23 06:51:15;;;;;;;;;;;;;;;;;;;;;
2023/08/23 06:53:41;;;;;;;;;5.00;3.00;;;;;23.19;61.17;101458.84;5085113;27;69389;-73
2023/08/23 06:56:15;;;;;;;;;4.00;3.25;;;;;23.23;60.63;101476.72;5098090;27;45409;-73
2023/08/23 06:59:02;;;;;;;;;4.50;3.25;;;;;23.09;61.50;101458.69;5087479;27;47865;-71
2023/08/23 07:01:39;;;;;;;;;5.00;3.50;;;;;23.02;61.60;101449.16;5096722;27;45841;-73
2023/08/23 07:04:10;;;;;;;;;6.25;4.50;;;;;23.09;61.37;101458.69;5095688;27;45559;-73
2023/08/23 07:06:35;;;;;;;;;3.00;3.00;;;;;23.06;61.23;101467.94;5093100;27;45536;-73
2023/08/23 07:09:01;;;;;;;;;4.25;4.25;;;;;23.21;61.30;101497.75;5084876;27;45546;-72
2023/08/23 07:11:26;;;;;;;;;4.00;3.00;;;;;23.23;61.22;101495.78;5106923;27;45719;-72
2023/08/23 07:13:52;;;;;;;;;3.00;3.00;;;;;23.29;62.11;101506.22;5084025;27;45571;-71
2023/08/23 07:16:17;;;;;;;;;4.00;4.00;;;;;23.40;61.93;101519.88;5089679;27;45500;-72
2023/08/23 07:18:48;;;;;;;;;4.50;4.25;;;;;23.48;61.70;101524.78;5090784;27;46511;-72
2023/08/23 07:21:15;;;;;;;;;5.25;4.00;;;;;23.25;61.93;101475.59;5084741;27;45973;-71
2023/08/23 07:23:41;;;;;;;;;4.00;4.00;;;;;23.22;62.38;101464.06;5080670;27;45733;-72
2023/08/23 07:26:16;;;;;;;;;6.25;4.25;;;;;23.35;61.49;101478.50;5091427;27;45515;-72
2023/08/23 07:28:46;;;;;;;;;5.50;4.00;;;;;23.26;61.82;101461.00;5115461;27;47687;-72
2023/08/23 07:31:22;;;;;;;;;;;;;;;;;;;;;
2023/08/23 07:34:05;;;;;;;;;;;;;;;;;;;;;
2023/08/23 07:36:33;;;;;;;;;5.75;4.50;;;;;23.24;61.52;101462.97;5096947;27;71549;-72
2023/08/23 07:39:00;;;;;;;;;5.00;3.25;;;;;23.35;61.36;101496.72;5086875;27;45463;-72
2023/08/23 07:41:29;;;;;;;;;4.00;4.00;;;;;23.55;61.71;101517.88;5091503;27;45536;-72
2023/08/23 07:43:57;;;;;;;;;3.75;3.75;;;;;23.58;62.05;101516.78;5108573;27;45519;-72
2023/08/23 07:46:51;;;;;;;;;3.00;3.00;;;;;23.66;61.71;101523.41;5090262;27;45494;-72
2023/08/23 07:49:16;;;;;;;;;5.50;5.50;;;;;23.41;61.45;101478.06;5092067;27;46985;-71
2023/08/23 07:51:54;;;;;;;;;;;;;;;;;;;;;
2023/08/23 07:54:25;;;;;;;;;4.75;4.75;;;;;23.74;61.32;101522.81;5093646;27;68873;-72
2023/08/23 07:56:50;;;;;;;;;4.00;4.00;;;;;23.76;61.73;101522.72;5099695;27;45519;-70
2023/08/23 07:59:15;;;;;;;;;4.25;3.00;;;;;23.75;61.92;101519.09;5099691;27;46414;-65
2023/08/23 08:01:41;;;;;;;;;4.75;3.00;;;;;23.77;61.73;101511.69;5098784;27;45398;-65
2023/08/23 08:04:06;;;;;;;;;2.50;2.50;;;;;23.89;62.07;101523.56;5096754;27;46079;-65
2023/08/23 08:06:31;;;;;;;;;7.00;5.00;;;;;23.92;61.61;101531.47;5100262;27;46081;-65
2023/08/23 08:08:57;;;;;;;;;3.25;3.25;;;;;23.93;61.36;101530.50;5099142;27;46575;-65
2023/08/23 08:11:22;;;;;;;;;5.50;5.25;;;;;23.96;61.51;101526.69;5093399;27;45529;-66
2023/08/23 08:13:48;;;;;;;;;3.00;3.00;;;;;23.83;61.04;101500.34;5098687;27;45519;-66
2023/08/23 08:16:14;;;;;;;;;5.00;5.00;;;;;23.98;61.49;101519.25;5096728;27;45553;-65
2023/08/23 08:18:40;;;;;;;;;7.00;5.00;;;;;24.03;61.63;101520.63;5095444;27;45630;-65
2023/08/23 08:21:06;;;;;;;;;5.50;4.50;;;;;24.01;61.24;101513.56;5095881;27;45643;-66
2023/08/23 08:23:32;;;;;;;;;6.00;6.00;;;;;24.03;61.42;101506.97;5094120;27;45852;-65
2023/08/23 08:25:57;;;;;;;;;5.00;3.00;;;;;24.05;60.96;101510.44;5084447;27;45692;-66
2023/08/23 08:28:23;;;;;;;;;5.00;3.50;;;;;24.15;61.08;101521.53;5093628;27;45671;-65
2023/08/23 08:30:48;;;;;;;;;5.25;3.00;;;;;24.12;61.34;101508.13;5096736;27;45432;-66
2023/08/23 08:33:14;;;;;;;;;4.00;4.00;;;;;24.09;60.76;101493.84;5098791;27;45436;-66
2023/08/23 08:35:39;;;;;;;;;6.25;5.00;;;;;24.17;61.62;101507.75;5096386;27;45896;-66
2023/08/23 08:38:05;;;;;;;;;5.00;4.00;;;;;24.24;61.54;101514.50;5088564;27;45401;-65
2023/08/23 08:40:32;;;;;;;;;2.25;1.00;;;;;24.23;60.86;101508.16;5099116;27;45697;-65
2023/08/23 08:42:59;;;;;;;;;6.50;6.00;;;;;24.32;61.06;101525.66;5098499;27;45341;-65
2023/08/23 08:45:24;;;;;;;;;11.00;9.50;;;;;24.41;61.64;101529.53;5097721;27;45502;-65
2023/08/23 08:47:51;;;;;;;;;7.75;7.00;;;;;24.39;61.79;101520.59;5096685;27;45301;-65
2023/08/23 08:50:17;;;;;;;;;3.00;3.00;;;;;24.52;61.16;101528.69;5098386;27;45688;-65
2023/08/23 08:52:52;;;;;;;;;7.00;5.00;;;;;24.49;62.10;101520.72;5095908;27;45728;-65
2023/08/23 08:55:21;;;;;;;;;5.00;5.00;;;;;24.50;61.55;101515.16;5089435;27;45489;-65
2023/08/23 08:57:49;;;;;;;;;5.50;3.75;;;;;24.40;61.10;101485.00;5094018;27;47069;-66
2023/08/23 09:00:15;;;;;;;;;3.25;3.25;;;;;24.64;60.64;101533.22;5095890;27;45455;-65
2023/08/23 09:02:43;;;;;;;;;4.50;4.50;;;;;24.60;60.34;101521.66;5089388;27;45492;-65
2023/08/23 09:05:09;;;;;;;;;1.50;1.50;;;;;24.76;61.43;101540.41;5090114;27;45464;-65
2023/08/23 09:07:34;;;;;;;;;3.75;3.75;;;;;24.82;61.66;101539.03;5091156;27;47106;-65
2023/08/23 09:10:02;;;;;;;;;4.25;4.25;;;;;24.89;61.66;101542.16;5097535;27;45585;-65
2023/08/23 09:12:27;;;;;;;;;5.00;5.00;;;;;24.94;60.50;101542.66;5089897;27;46637;-65
2023/08/23 09:14:52;;;;;;;;;8.50;7.00;;;;;24.94;61.20;101537.19;5097207;27;45762;-65
2023/08/23 09:17:25;;;;;;;;;7.00;6.75;;;;;25.05;60.67;101547.25;5096417;27;46185;-69
2023/08/23 09:19:51;;;;;;;;;7.00;6.00;;;;;25.01;60.84;101518.44;5091159;27;45785;-70
2023/08/23 09:22:20;;;;;;;;;4.25;3.00;;;;;25.13;61.10;101536.59;5097296;27;45610;-69
2023/08/23 09:24:46;;;;;;;;;2.50;2.50;;;;;25.19;60.76;101533.31;5098242;27;45602;-70
2023/08/23 09:27:11;;;;;;;;;8.00;5.00;;;;;25.18;60.72;101512.47;5099109;27;47062;-70
2023/08/23 09:29:38;;;;;;;;;6.50;5.75;;;;;25.30;59.91;101524.28;5097477;27;45404;-70
2023/08/23 09:32:06;;;;;;;;;3.00;3.00;;;;;25.29;59.53;101517.97;5083889;27;45302;-70
2023/08/23 09:34:31;;;;;;;;;4.25;4.25;;;;;25.42;59.78;101527.88;5094924;27;45615;-70
2023/08/23 09:37:07;;;;;;;;;4.50;4.50;;;;;25.42;59.00;101515.06;5097768;27;46857;-69
2023/08/23 09:39:33;;;;;;;;;4.25;4.25;;;;;25.55;58.76;101535.94;5095362;27;45332;-70
2023/08/23 09:42:04;;;;;;;;;5.00;5.00;;;;;25.52;59.70;101516.03;5094913;27;45482;-70
2023/08/23 09:44:30;;;;;;;;;4.00;4.00;;;;;25.62;59.18;101527.06;5088094;27;45325;-70
2023/08/23 09:47:00;;;;;;;;;4.50;4.50;;;;;25.74;59.58;101532.50;5099395;27;48098;-70
2023/08/23 09:49:34;;;;;;;;;4.25;3.25;;;;;25.74;59.38;101524.31;5090883;27;45535;-70
2023/08/23 09:52:00;;;;;;;;;6.00;4.25;;;;;25.80;58.49;101524.66;5084714;27;45828;-70
2023/08/23 09:54:54;;;;;;;;;6.75;4.50;;;;;25.97;59.16;101539.66;5091743;27;45465;-70
2023/08/23 09:57:21;;;;;;;;;4.00;4.00;;;;;26.05;59.30;101530.81;5088001;27;48484;-70
2023/08/23 09:59:46;;;;;;;;;5.75;4.25;;;;;26.09;58.81;101521.31;5095907;27;45677;-71
2023/08/23 10:02:16;;;;;;;;;5.75;5.75;;;;;26.09;58.74;101506.78;5090185;27;45804;-70
2023/08/23 10:04:42;;;;;;;;;5.75;5.50;;;;;26.13;58.04;101503.66;5098106;27;45538;-70
2023/08/23 10:07:08;;;;;;;;;5.75;4.25;;;;;26.17;57.94;101504.25;5098177;27;45370;-70
2023/08/23 10:09:35;;;;;;;;;6.00;6.00;;;;;26.19;58.19;101499.50;5097874;27;45572;-69
2023/08/23 10:12:04;;;;;;;;;6.50;4.00;;;;;26.30;58.03;101506.81;5097001;27;45452;-70
2023/08/23 10:14:33;;;;;;;;;5.50;5.00;;;;;26.36;58.48;101506.25;5095371;27;45488;-70
2023/08/23 10:17:01;;;;;;;;;4.75;3.75;;;;;26.37;57.62;101495.16;5094197;27;46314;-70
2023/08/23 10:19:26;;;;;;;;;5.75;4.75;;;;;26.43;57.94;101493.78;5094593;27;45508;-70
2023/08/23 10:21:52;;;;;;;;;5.00;5.00;;;;;26.47;58.07;101478.81;5096584;27;45487;-70
2023/08/23 10:24:17;;;;;;;;;5.00;5.00;;;;;26.55;57.86;101479.00;5098956;27;45462;-70
2023/08/23 10:26:51;;;;;;;;;4.25;4.25;;;;;26.64;56.93;101485.56;5085118;27;46184;-69
2023/08/23 10:29:22;;;;;;;;;8.25;5.00;;;;;26.53;56.55;101460.94;5097777;27;45444;-70
2023/08/23 10:31:53;;;;;;;;;4.75;4.75;;;;;26.73;56.53;101486.59;5084223;27;45319;-71
2023/08/23 10:34:26;;;;;;;;;5.75;5.75;;;;;26.70;56.51;101470.47;5094616;27;45777;-70
2023/08/23 10:36:55;;;;;;;;;6.00;5.00;;;;;26.81;56.95;101475.81;5085039;27;45402;-70
2023/08/23 10:39:23;;;;;;;;;7.75;6.00;;;;;26.84;57.19;101461.00;5097958;27;45547;-67
2023/08/23 10:41:54;;;;;;;;;7.00;5.50;;;;;26.91;57.64;101468.50;5082279;27;45535;-67
2023/08/23 10:44:20;;;;;;;;;5.00;5.00;;;;;27.02;56.63;101483.13;5091548;27;45305;-67
2023/08/23 10:46:49;;;;;;;;;4.00;4.00;;;;;27.03;56.21;101471.13;5082999;27;46219;-68
2023/08/23 10:49:20;;;;;;;;;8.75;6.25;;;;;27.15;56.13;101483.75;5084533;27;45587;-67
2023/08/23 10:51:45;;;;;;;;;5.00;4.25;;;;;27.04;55.94;101457.31;5084834;27;45438;-68
2023/08/23 10:54:12;;;;;;;;;7.00;7.00;;;;;27.12;55.60;101473.06;5092448;27;45673;-68
2023/08/23 10:56:38;;;;;;;;;3.75;3.75;;;;;27.22;56.64;101486.78;5095355;27;45506;-68
2023/08/23 10:59:04;;;;;;;;;5.00;5.00;;;;;27.22;56.45;101473.09;5090575;27;45380;-68
2023/08/23 11:01:29;;;;;;;;;6.25;6.00;;;;;27.33;56.63;101483.94;5110764;27;45486;-68
2023/08/23 11:03:55;;;;;;;;;5.25;5.00;;;;;27.38;56.50;101489.00;5079081;27;45526;-68
2023/08/23 11:06:21;;;;;;;;;6.00;6.00;;;;;27.43;55.96;101482.09;5094826;27;46103;-68
2023/08/23 11:08:46;;;;;;;;;8.50;6.50;;;;;27.49;55.77;101476.03;5094686;27;45796;-68
2023/08/23 11:11:12;;;;;;;;;5.50;5.50;;;;;27.46;56.97;101464.47;5089121;27;45532;-69
2023/08/23 11:13:38;;;;;;;;;6.50;6.00;;;;;27.55;55.95;101460.91;5089100;27;45565;-69
2023/08/23 11:16:04;;;;;;;;;5.75;5.00;;;;;27.65;56.19;101469.09;5088340;27;45553;-68
2023/08/23 11:18:30;;;;;;;;;6.25;5.00;;;;;27.64;55.24;101459.16;5093161;27;45699;-68
2023/08/23 11:20:55;;;;;;;;;5.25;3.75;;;;;27.67;55.37;101447.91;5094976;27;45475;-69
2023/08/23 11:23:21;;;;;;;;;5.25;5.25;;;;;27.78;55.38;101452.38;5080830;27;45891;-67
2023/08/23 11:25:46;;;;;;;;;7.50;6.25;;;;;27.81;55.22;101446.59;5088094;27;46649;-69
2023/08/23 11:28:15;;;;;;;;;6.00;5.50;;;;;27.73;55.39;101430.84;5085415;27;45488;-68
2023/08/23 11:30:42;;;;;;;;;9.75;9.75;;;;;27.88;55.54;101436.75;5077430;27;45635;-69
2023/08/23 11:33:08;;;;;;;;;5.00;5.00;;;;;27.89;54.97;101433.88;5095021;27;45580;-68
2023/08/23 11:35:33;;;;;;;;;6.25;6.25;;;;;27.98;54.70;101432.16;5089578;27;45600;-68